Time;durP1;ratioP1;P1;durP2;ratioP2;P2;SDS_P1;SDS_P2;PMS_P1;PMS_P2;Temp;Humidity;BMP_temperature;BMP_pressure;BME280_temperature;BME280_humidity;BME280_pressure;Samples;Min_cycle;Max_cycle;Signal;HPM_P1;HPM_P2
2022/07/31 00:01:19;;;;;;;;;1.25;1.00;;;;;23.74;50.15;101118.81;5073563;28;45374;-75
2022/07/31 00:03:44;;;;;;;;;0.25;0.25;;;;;23.82;50.35;101137.19;5073856;28;45287;-76
2022/07/31 00:06:09;;;;;;;;;1.00;1.00;;;;;23.77;50.46;101126.72;5073744;28;45547;-75
2022/07/31 00:08:35;;;;;;;;;1.00;1.00;;;;;23.72;50.73;101128.88;5073474;28;46091;-75
2022/07/31 00:11:00;;;;;;;;;1.25;1.25;;;;;23.69;50.60;101124.53;5065816;28;45284;-76
2022/07/31 00:13:26;;;;;;;;;1.00;1.00;;;;;23.68;50.33;101133.59;5070095;28;45573;-77
2022/07/31 00:15:51;;;;;;;;;1.00;1.00;;;;;23.66;50.41;101130.13;5072306;27;45482;-77
2022/07/31 00:18:16;;;;;;;;;1.00;1.00;;;;;23.66;50.24;101129.28;5073104;28;47697;-75
2022/07/31 00:20:43;;;;;;;;;0.00;0.00;;;;;23.63;50.33;101114.16;5072571;28;45713;-74
2022/07/31 00:23:09;;;;;;;;;1.00;1.00;;;;;23.64;50.96;101125.78;5071575;28;45365;-75
2022/07/31 00:25:34;;;;;;;;;1.00;1.00;;;;;23.52;50.56;101108.59;5071762;28;45615;-75
2022/07/31 00:27:59;;;;;;;;;2.00;2.00;;;;;23.62;51.06;101128.59;5073620;28;45556;-74
2022/07/31 00:30:25;;;;;;;;;0.75;0.75;;;;;23.53;51.19;101113.03;5073434;28;45446;-75
2022/07/31 00:32:50;;;;;;;;;1.50;1.00;;;;;23.49;50.86;101120.47;5073310;28;47671;-75
2022/07/31 00:35:16;;;;;;;;;1.75;1.00;;;;;23.48;50.81;101121.41;5076588;28;45504;-75
2022/07/31 00:37:43;;;;;;;;;1.00;1.00;;;;;23.52;51.02;101114.88;5076065;27;45429;-75
2022/07/31 00:40:10;;;;;;;;;0.25;0.25;;;;;23.54;50.81;101125.56;5074531;28;45548;-75
2022/07/31 00:42:35;;;;;;;;;1.75;1.25;;;;;23.53;51.10;101123.81;5076629;28;45271;-74
2022/07/31 00:45:01;;;;;;;;;2.00;2.00;;;;;23.47;51.01;101124.22;5077916;28;45320;-74
2022/07/31 00:47:26;;;;;;;;;0.00;0.00;;;;;23.39;51.17;101122.88;5078816;27;46016;-76
2022/07/31 00:49:52;;;;;;;;;1.00;1.00;;;;;23.41;51.47;101125.47;5076261;28;45438;-76
2022/07/31 00:52:17;;;;;;;;;2.00;1.00;;;;;23.33;51.85;101108.94;5075282;28;45511;-75
2022/07/31 00:54:42;;;;;;;;;2.50;1.50;;;;;23.38;51.38;101112.19;5073879;28;45633;-75
2022/07/31 00:57:08;;;;;;;;;0.25;0.25;;;;;23.39;51.75;101127.41;5076122;27;49272;-75
2022/07/31 00:59:33;;;;;;;;;2.00;2.00;;;;;23.35;51.72;101125.88;5076931;27;45355;-74
2022/07/31 01:01:59;;;;;;;;;1.00;1.00;;;;;23.30;51.76;101128.03;5076679;28;45464;-76
2022/07/31 01:04:25;;;;;;;;;1.00;1.00;;;;;23.28;51.49;101130.81;5075008;28;45592;-76
2022/07/31 01:06:54;;;;;;;;;2.00;2.00;;;;;23.28;51.90;101119.19;5076487;27;46301;-76
2022/07/31 01:09:19;;;;;;;;;3.00;2.00;;;;;23.22;52.11;101132.06;5072085;28;45497;-76
2022/07/31 01:12:06;;;;;;;;;3.00;2.25;;;;;23.21;52.05;101129.47;5059585;28;45508;-75
2022/07/31 01:14:37;;;;;;;;;1.25;1.25;;;;;23.13;52.74;101124.59;5056522;28;45560;-77
2022/07/31 01:17:05;;;;;;;;;1.00;1.00;;;;;23.14;52.06;101128.13;5056267;28;46399;-75
2022/07/31 01:19:40;;;;;;;;;1.00;1.00;;;;;23.14;52.41;101131.72;5056092;28;45378;-75
2022/07/31 01:22:30;;;;;;;;;1.00;1.00;;;;;23.14;52.28;101134.41;5064273;28;45481;-74
2022/07/31 01:25:10;;;;;;;;;1.00;1.00;;;;;22.93;52.75;101108.78;5075333;27;45575;-75
2022/07/31 01:27:51;;;;;;;;;0.00;0.00;;;;;23.03;52.62;101135.06;5075725;27;45618;-75
2022/07/31 01:30:18;;;;;;;;;1.00;1.00;;;;;22.98;52.66;101129.09;5075736;27;45430;-76
2022/07/31 01:32:48;;;;;;;;;0.00;0.00;;;;;22.94;52.73;101134.78;5062242;28;45524;-75
2022/07/31 01:35:23;;;;;;;;;1.00;1.00;;;;;22.94;52.99;101130.28;5058458;28;45445;-75
2022/07/31 01:37:57;;;;;;;;;1.25;1.25;;;;;22.91;52.78;101132.28;5071513;28;46434;-75
2022/07/31 01:40:36;;;;;;;;;2.25;2.00;;;;;22.86;52.84;101133.41;5055780;28;45527;-74
2022/07/31 01:43:06;;;;;;;;;1.00;1.00;;;;;22.78;52.97;101130.34;5056409;28;45510;-75
2022/07/31 01:45:34;;;;;;;;;0.75;0.75;;;;;22.74;53.52;101123.41;5054757;28;45328;-75
2022/07/31 01:48:00;;;;;;;;;2.00;0.25;;;;;22.82;53.47;101145.38;5056661;28;45513;-75
2022/07/31 01:50:27;;;;;;;;;0.75;0.75;;;;;22.74;53.53;101115.34;5055306;28;45542;-75
2022/07/31 01:52:55;;;;;;;;;3.75;1.00;;;;;22.77;54.18;101136.69;5060737;28;45393;-75
2022/07/31 01:55:23;;;;;;;;;3.00;1.25;;;;;22.67;53.80;101130.16;5074759;27;45573;-75
2022/07/31 01:57:49;;;;;;;;;1.00;1.00;;;;;22.64;53.94;101135.75;5075381;28;45401;-74
2022/07/31 02:00:17;;;;;;;;;0.75;0.75;;;;;22.64;54.03;101135.75;5075881;28;45453;-75
2022/07/31 02:02:46;;;;;;;;;1.00;1.00;;;;;22.66;53.97;101139.19;5075779;27;45350;-75
2022/07/31 02:05:12;;;;;;;;;1.00;1.00;;;;;22.61;54.40;101135.91;5061452;28;45498;-74
2022/07/31 02:07:39;;;;;;;;;1.00;1.00;;;;;22.58;54.59;101137.00;5055179;28;46127;-74
2022/07/31 02:10:08;;;;;;;;;0.75;0.00;;;;;22.56;54.39;101138.88;5054065;28;45465;-74
2022/07/31 02:12:36;;;;;;;;;1.00;1.00;;;;;21.85;54.87;101034.63;5053537;28;45464;-74
2022/07/31 02:15:12;;;;;;;;;0.50;0.50;;;;;22.45;55.03;101136.00;5054741;28;45421;-76
2022/07/31 02:17:38;;;;;;;;;0.75;0.75;;;;;22.44;54.88;101131.56;5055414;28;46547;-75
2022/07/31 02:20:08;;;;;;;;;1.00;1.00;;;;;22.40;54.89;101124.66;5073398;28;45532;-75
2022/07/31 02:22:33;;;;;;;;;0.00;0.00;;;;;22.44;55.29;101129.75;5075630;28;45417;-75
2022/07/31 02:24:59;;;;;;;;;1.00;1.00;;;;;22.41;55.32;101142.53;5074506;27;45384;-74
2022/07/31 02:27:26;;;;;;;;;1.00;1.00;;;;;22.34;55.75;101137.50;5075739;27;46294;-74
2022/07/31 02:29:56;;;;;;;;;1.25;1.25;;;;;22.31;55.92;101137.69;5074899;28;45505;-76
2022/07/31 02:32:24;;;;;;;;;0.00;0.00;;;;;22.26;56.06;101126.31;5058860;28;45389;-75
2022/07/31 02:34:51;;;;;;;;;2.00;0.75;;;;;22.24;56.39;101135.44;5054324;28;45342;-75
2022/07/31 02:37:18;;;;;;;;;2.25;1.25;;;;;22.19;56.81;101135.72;5054040;28;45572;-73
2022/07/31 02:39:45;;;;;;;;;2.00;2.00;;;;;22.18;56.50;101133.97;5053822;28;45550;-75
2022/07/31 02:42:14;;;;;;;;;1.75;1.75;;;;;22.05;57.06;101116.84;5054678;28;45499;-75
2022/07/31 02:44:40;;;;;;;;;1.75;1.75;;;;;22.03;56.93;101127.72;5072311;27;45374;-74
2022/07/31 02:47:05;;;;;;;;;2.75;1.75;;;;;22.05;56.77;101124.94;5070146;27;46665;-76
2022/07/31 02:49:33;;;;;;;;;2.50;2.50;;;;;22.08;57.09;101122.06;5054511;28;45447;-74
2022/07/31 02:51:58;;;;;;;;;3.50;2.00;;;;;22.06;57.22;101119.47;5054694;28;45446;-75
2022/07/31 02:54:24;;;;;;;;;2.00;2.00;;;;;22.02;57.31;101107.13;5053737;28;45420;-75
2022/07/31 02:56:52;;;;;;;;;3.00;3.00;;;;;22.06;57.22;101114.06;5054723;28;45467;-76
2022/07/31 02:59:17;;;;;;;;;1.50;1.50;;;;;22.03;57.57;101119.63;5054334;28;45374;-74
2022/07/31 03:01:43;;;;;;;;;3.25;2.00;;;;;21.99;57.54;101118.94;5054342;28;45362;-75
2022/07/31 03:04:09;;;;;;;;;2.00;2.00;;;;;22.01;57.60;101126.91;5074410;28;45286;-75
2022/07/31 03:06:34;;;;;;;;;0.75;0.75;;;;;21.90;58.01;101129.41;5074716;28;45371;-75
2022/07/31 03:08:59;;;;;;;;;1.75;1.75;;;;;21.80;58.34;101116.47;5075008;27;45396;-75
2022/07/31 03:11:25;;;;;;;;;0.75;0.75;;;;;21.79;58.32;101117.44;5075002;28;45351;-76
2022/07/31 03:13:54;;;;;;;;;3.00;2.00;;;;;21.78;58.81;101115.69;5074452;27;45399;-76
2022/07/31 03:16:21;;;;;;;;;3.00;3.00;;;;;21.75;58.96;101118.56;5072101;27;45513;-75
2022/07/31 03:18:47;;;;;;;;;2.00;2.00;;;;;21.67;58.99;101107.41;5074336;28;45410;-75
2022/07/31 03:21:13;;;;;;;;;3.00;2.00;;;;;21.64;59.33;101113.81;5073908;28;45417;-75
2022/07/31 03:23:39;;;;;;;;;3.00;3.00;;;;;21.59;59.39;101115.03;5074642;27;45339;-75
2022/07/31 03:26:05;;;;;;;;;3.00;2.00;;;;;21.58;59.73;101118.69;5073855;28;45430;-75
2022/07/31 03:28:32;;;;;;;;;3.00;3.00;;;;;21.47;59.47;101090.56;5074018;28;45440;-74
2022/07/31 03:30:58;;;;;;;;;4.00;3.00;;;;;21.54;59.92;101109.06;5073446;27;45419;-77
2022/07/31 03:33:23;;;;;;;;;4.75;4.00;;;;;21.47;59.85;101101.31;5074878;28;45620;-78
2022/07/31 03:35:49;;;;;;;;;4.00;4.00;;;;;21.47;59.81;101106.69;5074454;27;45820;-76
2022/07/31 03:38:14;;;;;;;;;5.25;5.25;;;;;21.45;60.00;101105.91;5075322;28;45407;-76
2022/07/31 03:40:41;;;;;;;;;2.50;2.50;;;;;21.44;60.00;101101.50;5075191;28;45342;-76
2022/07/31 03:43:06;;;;;;;;;4.25;4.00;;;;;21.41;59.69;101104.34;5074614;27;45352;-76
2022/07/31 03:45:34;;;;;;;;;7.25;6.75;;;;;21.40;60.12;101099.91;5072538;27;45439;-77
2022/07/31 03:48:01;;;;;;;;;4.25;4.25;;;;;21.35;60.16;101091.25;5073978;28;45343;-78
2022/07/31 03:50:27;;;;;;;;;8.00;6.00;;;;;21.28;60.41;101088.03;5073665;28;45537;-76
2022/07/31 03:52:53;;;;;;;;;8.50;6.75;;;;;21.29;60.21;101089.78;5072797;28;45492;-77
2022/07/31 03:55:19;;;;;;;;;7.25;6.50;;;;;21.24;60.33;101089.19;5073519;27;46256;-76
2022/07/31 03:57:46;;;;;;;;;6.75;6.75;;;;;21.15;60.43;101083.44;5074365;27;45458;-76
2022/07/31 04:00:12;;;;;;;;;7.00;6.00;;;;;21.23;60.35;101105.41;5061528;27;45497;-78
2022/07/31 04:02:38;;;;;;;;;4.50;4.25;;;;;21.23;60.39;101103.56;5053341;28;45659;-76
2022/07/31 04:05:04;;;;;;;;;5.75;5.00;;;;;21.27;60.29;101112.31;5053536;28;45504;-76
2022/07/31 04:07:33;;;;;;;;;8.25;6.75;;;;;21.25;60.45;101111.56;5054329;27;45500;-76
2022/07/31 04:09:59;;;;;;;;;7.50;7.50;;;;;21.25;60.34;101112.41;5054979;28;45520;-77
2022/07/31 04:12:24;;;;;;;;;11.50;9.25;;;;;21.25;60.38;101109.72;5055362;28;45530;-76
2022/07/31 04:14:50;;;;;;;;;10.75;9.25;;;;;21.23;60.25;101108.94;5056550;28;46210;-76
2022/07/31 04:17:15;;;;;;;;;10.50;8.50;;;;;21.20;60.52;101098.38;5056854;28;45377;-74
2022/07/31 04:19:40;;;;;;;;;7.25;7.25;;;;;21.20;60.23;101087.63;5056829;28;45627;-76
2022/07/31 04:22:06;;;;;;;;;11.50;10.00;;;;;21.25;60.17;101098.09;5058814;28;45465;-75
2022/07/31 04:24:31;;;;;;;;;10.75;10.00;;;;;21.25;60.08;101100.78;5076493;27;45437;-75
2022/07/31 04:26:57;;;;;;;;;8.00;8.00;;;;;21.24;59.94;101086.50;5075748;27;45402;-76
2022/07/31 04:29:23;;;;;;;;;10.25;9.25;;;;;21.32;59.79;101096.81;5059079;28;45491;-74
2022/07/31 04:31:49;;;;;;;;;9.00;9.00;;;;;21.25;59.88;101090.91;5067880;28;45529;-74
2022/07/31 04:34:15;;;;;;;;;9.50;8.50;;;;;21.34;59.74;101100.28;5077300;27;45368;-74
2022/07/31 04:36:41;;;;;;;;;12.00;8.00;;;;;21.34;59.84;101116.41;5078063;28;45375;-75
2022/07/31 04:39:06;;;;;;;;;9.50;9.50;;;;;21.17;59.79;101081.56;5061667;27;45506;-75
2022/07/31 04:41:31;;;;;;;;;11.50;10.75;;;;;21.36;59.93;101117.16;5056257;28;45571;-76
2022/07/31 04:43:58;;;;;;;;;11.75;10.75;;;;;21.39;59.82;101114.34;5056214;28;45964;-74
2022/07/31 04:46:24;;;;;;;;;7.75;7.75;;;;;21.39;59.84;101108.97;5055276;28;45453;-74
2022/07/31 04:48:49;;;;;;;;;9.50;8.25;;;;;21.41;59.52;101106.19;5055924;28;45587;-75
2022/07/31 04:51:16;;;;;;;;;9.00;7.25;;;;;21.43;59.68;101105.13;5056895;28;45556;-74
2022/07/31 04:53:42;;;;;;;;;6.00;6.00;;;;;21.45;59.73;101116.69;5073016;27;45534;-74
2022/07/31 04:58:51;;;;;;;;;6.75;4.75;;;;;21.52;59.61;101102.91;5076817;28;45457;-75
2022/07/31 05:01:16;;;;;;;;;5.25;5.25;;;;;21.51;59.41;101109.22;5076585;28;45548;-75
2022/07/31 05:03:42;;;;;;;;;5.50;5.00;;;;;21.52;59.20;101103.75;5075537;27;53621;-75
2022/07/31 05:06:09;;;;;;;;;7.75;6.50;;;;;21.58;59.29;101114.16;5077052;28;45398;-75
2022/07/31 05:08:34;;;;;;;;;6.50;6.50;;;;;21.63;59.04;101121.97;5057817;28;45442;-75
2022/07/31 05:13:44;;;;;;;;;10.00;7.25;;;;;21.67;59.09;101114.56;5072311;28;45539;-75
2022/07/31 05:16:11;;;;;;;;;11.75;8.75;;;;;21.69;59.20;101116.22;5076612;27;45480;-74
2022/07/31 05:18:38;;;;;;;;;5.00;5.00;;;;;21.64;59.11;101115.63;5076212;27;45398;-75
2022/07/31 05:21:04;;;;;;;;;4.75;4.75;;;;;21.59;59.08;101098.88;5069888;28;45433;-75
2022/07/31 05:23:29;;;;;;;;;4.50;4.50;;;;;21.69;59.13;101110.00;5056483;28;46526;-75
2022/07/31 05:25:54;;;;;;;;;6.25;5.00;;;;;21.75;58.96;101110.50;5055273;28;45448;-75
2022/07/31 05:28:20;;;;;;;;;6.00;6.00;;;;;21.69;58.91;101105.47;5055671;28;45406;-77
2022/07/31 05:30:45;;;;;;;;;5.00;5.00;;;;;21.73;58.70;101117.78;5055783;28;45366;-77
2022/07/31 05:33:10;;;;;;;;;4.50;4.50;;;;;21.75;58.81;101113.19;5055617;28;46027;-77
2022/07/31 05:35:36;;;;;;;;;5.00;4.00;;;;;21.86;58.46;101109.84;5056175;28;45506;-76
2022/07/31 05:38:01;;;;;;;;;5.25;4.00;;;;;21.81;58.88;101093.13;5056430;28;45453;-75
2022/07/31 05:40:27;;;;;;;;;3.50;3.50;;;;;21.88;58.72;101083.75;5055944;28;45370;-77
2022/07/31 05:42:52;;;;;;;;;4.00;3.75;;;;;22.00;58.60;101093.78;5055238;28;45371;-76
2022/07/31 05:45:18;;;;;;;;;4.00;4.00;;;;;22.11;58.29;101105.72;5063612;28;45600;-75
2022/07/31 05:47:43;;;;;;;;;5.25;5.25;;;;;21.86;57.88;101052.50;5055858;28;45451;-75
2022/07/31 05:50:09;;;;;;;;;5.50;5.50;;;;;22.17;57.90;101100.81;5057098;28;45543;-79
2022/07/31 05:52:34;;;;;;;;;3.00;3.00;;;;;22.26;57.86;101106.59;5053690;28;47084;-74
2022/07/31 05:54:59;;;;;;;;;3.00;3.00;;;;;22.29;57.63;101106.41;5054567;28;45402;-75
2022/07/31 05:57:25;;;;;;;;;3.00;3.00;;;;;22.24;57.35;101105.84;5055999;28;45477;-76
2022/07/31 05:59:50;;;;;;;;;3.50;3.00;;;;;22.36;56.87;101115.88;5059842;28;45640;-76
2022/07/31 06:02:17;;;;;;;;;4.50;4.00;;;;;22.30;56.73;101103.63;5075234;27;46169;-76
2022/07/31 06:04:42;;;;;;;;;7.00;4.75;;;;;22.42;56.21;101123.59;5076520;27;45398;-76
2022/07/31 06:07:07;;;;;;;;;3.00;3.00;;;;;22.45;56.50;101125.22;5071862;27;45414;-75
2022/07/31 06:09:33;;;;;;;;;4.00;4.00;;;;;22.50;56.09;101120.41;5061520;27;45499;-75
2022/07/31 06:11:58;;;;;;;;;6.25;5.25;;;;;22.45;56.56;101101.84;5057481;28;46277;-75
2022/07/31 06:14:23;;;;;;;;;4.00;4.00;;;;;22.57;56.08;101111.00;5059789;28;45611;-76
2022/07/31 06:16:49;;;;;;;;;5.00;5.00;;;;;22.70;56.09;101106.59;5068309;28;45469;-75
2022/07/31 06:19:14;;;;;;;;;3.75;3.75;;;;;22.81;55.30;101100.53;5066961;27;45330;-75
2022/07/31 06:21:40;;;;;;;;;4.50;3.50;;;;;23.04;55.70;101108.97;5067393;28;45479;-77
2022/07/31 06:24:05;;;;;;;;;3.00;3.00;;;;;23.16;54.96;101102.81;5073163;27;45434;-75
2022/07/31 06:26:31;;;;;;;;;3.00;3.00;;;;;23.30;54.69;101106.44;5065837;28;45468;-76
2022/07/31 06:28:56;;;;;;;;;3.00;3.00;;;;;23.31;53.75;101116.28;5064547;28;45426;-75
2022/07/31 06:31:23;;;;;;;;;4.50;4.50;;;;;23.29;54.16;101112.81;5061864;28;47227;-75
2022/07/31 06:33:49;;;;;;;;;4.00;4.00;;;;;23.41;53.55;101114.69;5061029;28;45378;-75
2022/07/31 06:36:15;;;;;;;;;4.50;3.25;;;;;23.47;52.91;101119.69;5062611;28;45442;-75
2022/07/31 06:38:41;;;;;;;;;4.00;4.00;;;;;23.68;53.05;101117.41;5057566;28;45492;-75
2022/07/31 06:41:06;;;;;;;;;4.75;4.50;;;;;24.02;51.97;101103.50;5062359;28;45502;-75
2022/07/31 06:43:31;;;;;;;;;6.00;4.00;;;;;24.55;50.27;101117.81;5062195;28;45330;-76
2022/07/31 06:45:56;;;;;;;;;3.75;3.75;;;;;24.58;50.34;101112.22;5057104;28;45437;-76
2022/07/31 06:48:22;;;;;;;;;4.25;4.25;;;;;25.03;49.27;101121.69;5054891;28;45444;-76
2022/07/31 06:50:47;;;;;;;;;4.25;4.25;;;;;25.26;48.45;101104.63;5054925;28;45369;-75
2022/07/31 06:53:13;;;;;;;;;4.25;4.25;;;;;26.49;46.47;101112.56;5062062;28;45411;-75
2022/07/31 06:55:38;;;;;;;;;5.25;5.25;;;;;27.73;44.11;101089.91;5061356;28;45395;-75
2022/07/31 06:58:04;;;;;;;;;4.75;4.75;;;;;29.13;40.59;101104.88;5066543;28;45451;-76
2022/07/31 07:00:29;;;;;;;;;4.00;4.00;;;;;29.59;39.79;101102.56;5065314;28;45416;-76
2022/07/31 07:02:54;;;;;;;;;5.00;5.00;;;;;29.75;39.75;101102.00;5058387;28;45494;-75
2022/07/31 07:05:20;;;;;;;;;4.00;4.00;;;;;29.60;39.15;101105.13;5063684;28;45429;-76
2022/07/31 07:07:46;;;;;;;;;4.75;4.75;;;;;30.14;37.49;101110.19;5067422;28;45527;-75
2022/07/31 07:10:11;;;;;;;;;6.00;5.00;;;;;30.05;38.26;101119.22;5059747;28;45893;-76
2022/07/31 07:12:36;;;;;;;;;5.25;4.00;;;;;29.65;38.31;101114.75;5060093;28;45528;-75
2022/07/31 07:15:02;;;;;;;;;2.75;2.75;;;;;29.15;38.97;101118.34;5057278;28;45547;-75
2022/07/31 07:17:28;;;;;;;;;2.75;2.75;;;;;28.76;39.90;101124.53;5063828;27;45555;-74
2022/07/31 07:19:53;;;;;;;;;4.00;4.00;;;;;28.49;41.21;101106.88;5058544;28;45334;-74
2022/07/31 07:22:18;;;;;;;;;3.50;3.50;;;;;28.16;40.94;101116.13;5054771;28;45548;-76
2022/07/31 07:24:43;;;;;;;;;4.00;4.00;;;;;27.85;41.56;101126.88;5050944;28;45561;-75
2022/07/31 07:27:09;;;;;;;;;6.00;4.75;;;;;27.73;41.60;101126.03;5072415;28;48796;-75
2022/07/31 07:29:35;;;;;;;;;4.00;4.00;;;;;27.72;41.98;101118.03;5067891;28;45555;-74
2022/07/31 07:32:00;;;;;;;;;4.00;4.00;;;;;27.63;42.30;101125.06;5060949;28;45456;-75
2022/07/31 07:34:26;;;;;;;;;5.00;5.00;;;;;27.58;42.41;101133.59;5073051;28;45737;-76
2022/07/31 07:36:51;;;;;;;;;4.00;4.00;;;;;27.37;42.58;101144.38;5072275;28;45362;-76
2022/07/31 07:39:17;;;;;;;;;4.75;4.75;;;;;27.00;42.28;101101.28;5069971;28;45587;-77
2022/07/31 07:41:42;;;;;;;;;5.50;5.00;;;;;27.61;42.74;101132.50;5062956;28;45569;-76
2022/07/31 07:44:08;;;;;;;;;5.00;4.25;;;;;28.68;40.02;101137.91;5059111;28;45522;-77
2022/07/31 07:46:33;;;;;;;;;3.75;3.75;;;;;29.08;39.41;101123.50;5065276;28;45662;-76
2022/07/31 07:48:59;;;;;;;;;6.00;5.00;;;;;29.31;37.98;101120.59;5071131;28;45540;-77
2022/07/31 07:51:24;;;;;;;;;4.25;4.25;;;;;29.41;38.61;101135.06;5056873;28;45444;-77
2022/07/31 07:53:49;;;;;;;;;4.50;4.50;;;;;29.63;38.40;101127.66;5059639;28;45466;-75
2022/07/31 07:56:15;;;;;;;;;4.50;4.00;;;;;30.37;37.10;101132.53;5070446;28;45536;-76
2022/07/31 07:58:41;;;;;;;;;7.75;5.00;;;;;30.62;35.75;101135.63;5060429;28;45540;-76
2022/07/31 08:01:06;;;;;;;;;4.00;4.00;;;;;30.37;36.44;101115.28;5070131;27;45408;-77
2022/07/31 08:03:32;;;;;;;;;7.00;6.75;;;;;30.21;36.94;101129.53;5060533;27;45495;-77
2022/07/31 08:05:57;;;;;;;;;5.00;5.00;;;;;30.03;36.71;101124.81;5071375;27;45329;-78
2022/07/31 08:08:23;;;;;;;;;4.75;4.75;;;;;29.83;36.65;101128.56;5062157;27;46838;-75
2022/07/31 08:10:48;;;;;;;;;4.50;4.50;;;;;29.81;37.18;101139.59;5066556;28;45414;-76
2022/07/31 08:13:13;;;;;;;;;6.00;6.00;;;;;29.93;37.54;101134.88;5063313;28;45343;-77
2022/07/31 08:15:39;;;;;;;;;6.00;6.00;;;;;30.57;35.89;101127.91;5069415;27;45592;-76
2022/07/31 08:18:06;;;;;;;;;6.50;5.25;;;;;31.19;34.65;101135.56;5064412;28;46456;-76
2022/07/31 08:20:31;;;;;;;;;4.50;4.50;;;;;31.29;35.22;101132.78;5062667;27;45311;-76
2022/07/31 08:22:56;;;;;;;;;4.75;4.75;;;;;31.05;34.96;101130.59;5069061;27;45385;-76
2022/07/31 08:25:22;;;;;;;;;5.75;5.75;;;;;31.89;34.29;101124.03;5067068;28;45421;-77
2022/07/31 08:27:48;;;;;;;;;4.25;4.25;;;;;32.92;32.55;101128.91;5062659;28;45429;-78
2022/07/31 08:30:15;;;;;;;;;5.00;5.00;;;;;33.99;31.27;101126.47;5062653;28;45778;-78
2022/07/31 08:32:40;;;;;;;;;4.50;4.50;;;;;33.95;30.29;101097.66;5059585;28;45409;-77
2022/07/31 08:35:06;;;;;;;;;5.50;4.25;;;;;33.90;30.50;101122.00;5071573;27;45468;-76
2022/07/31 08:37:32;;;;;;;;;4.75;3.50;;;;;33.49;30.91;101121.94;5060095;27;47648;-76
2022/07/31 08:39:58;;;;;;;;;3.25;3.25;;;;;33.60;31.18;101124.34;5063668;28;45382;-76
2022/07/31 08:42:24;;;;;;;;;4.00;4.00;;;;;33.37;31.69;101118.66;5071816;28;45374;-77
2022/07/31 08:44:49;;;;;;;;;4.00;4.00;;;;;33.24;31.67;101119.97;5067691;28;45411;-76
2022/07/31 08:47:16;;;;;;;;;4.75;4.75;;;;;33.53;31.71;101117.84;5070813;28;46134;-78
2022/07/31 08:49:47;;;;;;;;;5.00;5.00;;;;;34.33;30.22;101122.69;5074013;27;45402;-76
2022/07/31 08:52:20;;;;;;;;;4.50;3.75;;;;;34.67;29.94;101121.59;5069126;28;45535;-77
2022/07/31 08:54:49;;;;;;;;;3.00;3.00;;;;;34.83;30.12;101117.97;5070814;28;45327;-76
2022/07/31 08:57:15;;;;;;;;;6.00;6.00;;;;;34.60;30.22;101112.34;5066073;28;46136;-75
2022/07/31 08:59:41;;;;;;;;;5.00;5.00;;;;;34.26;30.13;101128.03;5059618;28;45655;-76
2022/07/31 09:02:08;;;;;;;;;5.00;5.00;;;;;34.48;30.68;101118.22;5063640;28;45454;-76
2022/07/31 09:04:33;;;;;;;;;5.25;4.25;;;;;35.11;28.71;101126.59;5073816;27;45452;-76
2022/07/31 09:06:59;;;;;;;;;6.00;6.00;;;;;35.36;28.63;101115.50;5066732;28;45919;-77
2022/07/31 09:09:25;;;;;;;;;3.75;3.25;;;;;35.69;28.80;101120.78;5062591;28;45596;-77
2022/07/31 09:11:53;;;;;;;;;5.50;5.50;;;;;35.77;28.09;101109.75;5064125;28;45564;-76
2022/07/31 09:14:33;;;;;;;;;4.75;4.75;;;;;36.26;28.39;101117.59;5057026;28;45501;-75
2022/07/31 09:17:01;;;;;;;;;3.25;3.25;;;;;36.66;26.85;101105.50;5067735;28;45571;-84
2022/07/31 09:19:44;;;;;;;;;3.00;3.00;;;;;37.07;26.35;101114.13;5071370;27;45460;-77
2022/07/31 09:22:20;;;;;;;;;4.75;4.75;;;;;37.67;26.00;101109.31;5057152;28;45438;-83
2022/07/31 09:24:46;;;;;;;;;7.75;6.50;;;;;38.03;25.58;101110.28;5061081;28;45562;-78
2022/07/31 09:27:13;;;;;;;;;5.00;5.00;;;;;38.27;24.72;101102.66;5066216;28;46642;-79
2022/07/31 09:29:41;;;;;;;;;4.00;4.00;;;;;38.50;24.96;101100.47;5054942;28;45436;-79
2022/07/31 09:32:10;;;;;;;;;3.50;3.50;;;;;38.58;25.20;101099.44;5067676;28;45475;-75
2022/07/31 09:34:39;;;;;;;;;6.00;6.00;;;;;38.38;23.93;101100.16;5066347;28;45638;-75
2022/07/31 09:37:09;;;;;;;;;4.75;4.75;;;;;38.56;24.92;101112.59;5073502;28;47228;-76
2022/07/31 09:39:36;;;;;;;;;5.00;5.00;;;;;38.65;24.29;101111.41;5066661;27;45416;-75
2022/07/31 09:42:01;;;;;;;;;6.00;5.00;;;;;38.80;24.06;101114.06;5073935;28;45450;-75
2022/07/31 09:44:47;;;;;;;;;13.75;13.75;;;;;38.85;24.25;101117.03;5066818;28;45616;-73
2022/07/31 09:47:27;;;;;;;;;10.25;10.00;;;;;38.68;24.93;101104.66;5057378;28;45706;-78
2022/07/31 09:50:11;;;;;;;;;5.25;5.00;;;;;39.11;23.84;101121.00;5070176;27;45619;-81
2022/07/31 09:52:37;;;;;;;;;5.00;5.00;;;;;38.61;24.25;101015.38;5062716;28;45299;-77
2022/07/31 09:55:06;;;;;;;;;6.75;6.25;;;;;39.03;23.57;101115.63;5070100;28;45382;-78
2022/07/31 09:57:34;;;;;;;;;5.75;5.75;;;;;38.87;24.20;101111.31;5066177;28;45509;-79
2022/07/31 10:00:07;;;;;;;;;2.00;2.00;;;;;38.74;24.60;101115.72;5062111;28;45393;-78
2022/07/31 10:02:37;;;;;;;;;6.00;4.75;;;;;38.94;24.49;101119.63;5063870;27;45453;-77
2022/07/31 10:05:04;;;;;;;;;5.00;4.00;;;;;38.41;24.83;101005.09;5071016;27;45605;-80
2022/07/31 10:07:34;;;;;;;;;5.50;5.50;;;;;39.14;24.58;101119.75;5067395;28;46152;-79
2022/07/31 10:10:01;;;;;;;;;7.00;7.00;;;;;39.12;24.20;101116.34;5060352;28;45332;-78
2022/07/31 10:12:29;;;;;;;;;5.00;5.00;;;;;39.25;24.47;101108.09;5063093;28;45381;-76
2022/07/31 10:14:58;;;;;;;;;6.50;6.50;;;;;39.01;24.05;101110.31;5052824;28;45456;-76
2022/07/31 10:17:28;;;;;;;;;5.75;5.75;;;;;38.94;23.84;101108.59;5063670;28;45964;-74
2022/07/31 10:20:02;;;;;;;;;6.00;6.00;;;;;38.84;24.80;101107.06;5061331;28;45555;-77
2022/07/31 10:22:39;;;;;;;;;5.75;5.75;;;;;38.95;24.19;101093.72;5057936;28;45328;-76
2022/07/31 10:25:07;;;;;;;;;7.00;5.25;;;;;38.78;24.42;101099.59;5060039;28;45639;-75
2022/07/31 10:27:34;;;;;;;;;4.75;4.75;;;;;38.65;24.12;101086.56;5063747;28;46354;-75
2022/07/31 10:30:00;;;;;;;;;4.50;4.50;;;;;38.76;24.17;101085.13;5062576;28;45478;-75
2022/07/31 10:32:25;;;;;;;;;6.75;6.75;;;;;38.94;23.85;101089.25;5064617;27;45479;-75
2022/07/31 10:34:51;;;;;;;;;5.00;5.00;;;;;39.03;24.11;101097.16;5074019;28;45732;-75
2022/07/31 10:37:21;;;;;;;;;5.00;5.00;;;;;39.12;24.29;101099.78;5054997;28;46219;-75
2022/07/31 10:40:18;;;;;;;;;7.75;7.75;;;;;38.95;23.74;101097.34;5053903;28;45495;-77
2022/07/31 10:43:17;;;;;;;;;7.75;6.00;;;;;38.91;23.48;101094.13;5061684;28;45406;-75
2022/07/31 10:45:52;;;;;;;;;5.50;5.50;;;;;38.96;23.30;101090.72;5063077;28;45495;-76
2022/07/31 10:48:19;;;;;;;;;7.00;5.75;;;;;39.05;24.20;101089.53;5067016;28;46053;-76
2022/07/31 10:50:45;;;;;;;;;5.25;5.00;;;;;39.04;23.72;101096.09;5066655;28;45451;-76
2022/07/31 10:53:15;;;;;;;;;3.75;3.75;;;;;38.93;23.69;101085.63;5062034;27;45438;-74
2022/07/31 10:55:41;;;;;;;;;5.00;4.00;;;;;39.03;24.36;101083.34;5069345;28;45425;-76
2022/07/31 10:58:21;;;;;;;;;4.25;4.25;;;;;38.87;23.85;101058.84;5065098;27;46139;-75
2022/07/31 11:00:46;;;;;;;;;6.00;5.00;;;;;38.98;24.17;101088.63;5071508;28;45557;-75
2022/07/31 11:03:20;;;;;;;;;4.75;4.75;;;;;39.12;24.46;101083.19;5054815;28;45877;-76
2022/07/31 11:05:58;;;;;;;;;4.00;3.00;;;;;39.05;24.15;101088.66;5064658;28;45478;-75
2022/07/31 11:08:24;;;;;;;;;3.50;3.50;;;;;38.96;23.64;101076.94;5059895;28;45596;-75
2022/07/31 11:10:54;;;;;;;;;6.00;5.00;;;;;38.76;24.81;101089.81;5063805;28;45378;-76
2022/07/31 11:13:22;;;;;;;;;4.00;4.00;;;;;38.88;23.85;101085.41;5074148;28;45412;-76
2022/07/31 11:15:51;;;;;;;;;4.00;4.00;;;;;38.95;23.69;101072.47;5058466;28;45499;-75
2022/07/31 11:18:19;;;;;;;;;4.50;4.50;;;;;38.83;24.06;101066.69;5068623;28;46189;-77
2022/07/31 11:20:48;;;;;;;;;5.00;5.00;;;;;38.66;24.34;101068.97;5068059;28;45928;-76
2022/07/31 11:23:16;;;;;;;;;5.25;5.25;;;;;38.46;24.41;101076.22;5053053;28;45529;-77
2022/07/31 11:25:44;;;;;;;;;4.75;4.75;;;;;38.25;24.27;101078.03;5064851;28;45352;-78
2022/07/31 11:28:17;;;;;;;;;5.00;5.00;;;;;38.31;24.84;101071.72;5071099;27;47013;-76
2022/07/31 11:31:00;;;;;;;;;6.00;6.00;;;;;38.39;24.30;101073.44;5054109;28;45466;-78